Time;durP1;ratioP1;P1;durP2;ratioP2;P2;SDS_P1;SDS_P2;PMS_P1;PMS_P2;Temp;Humidity;BMP_temperature;BMP_pressure;BME280_temperature;BME280_humidity;BME280_pressure;Samples;Min_cycle;Max_cycle;Signal;HPM_P1;HPM_P2
2022/05/02 00:01:27;;;;;;;10.00;6.65;;;6.70;99.90;;;;;;4989634;28;20052;-71
2022/05/02 00:03:53;;;;;;;11.80;6.40;;;6.60;99.90;;;;;;4994240;28;20425;-71
2022/05/02 00:06:18;;;;;;;12.38;6.25;;;6.60;99.90;;;;;;4987122;28;20485;-71
2022/05/02 00:08:44;;;;;;;11.05;6.28;;;6.50;99.90;;;;;;4968778;28;20081;-71
2022/05/02 00:11:10;;;;;;;9.05;6.38;;;6.50;99.90;;;;;;4986939;28;20061;-71
2022/05/02 00:13:36;;;;;;;9.52;6.63;;;6.50;99.90;;;;;;4970640;28;20049;-71
2022/05/02 00:16:01;;;;;;;13.90;6.88;;;6.50;99.90;;;;;;4991918;28;20042;-71
2022/05/02 00:18:28;;;;;;;11.90;7.30;;;6.40;99.90;;;;;;4973017;28;20120;-71
2022/05/02 00:20:54;;;;;;;14.15;7.07;;;6.40;99.90;;;;;;4996122;28;20050;-71
2022/05/02 00:23:20;;;;;;;15.57;7.75;;;6.40;99.90;;;;;;4975913;28;20700;-71
2022/05/02 00:25:46;;;;;;;13.20;7.22;;;6.30;99.90;;;;;;4973196;28;20053;-71
2022/05/02 00:28:13;;;;;;;18.90;7.05;;;6.30;99.90;;;;;;4973759;28;20058;-71
2022/05/02 00:30:39;;;;;;;27.17;8.38;;;6.40;99.90;;;;;;4973929;28;20053;-71
2022/05/02 00:33:05;;;;;;;28.70;7.80;;;6.30;99.90;;;;;;4978735;28;20041;-71
2022/05/02 00:35:31;;;;;;;15.27;7.28;;;6.30;99.90;;;;;;4974405;28;20060;-72
2022/05/02 00:37:57;;;;;;;14.75;7.25;;;6.30;99.90;;;;;;4989699;28;20133;-71
2022/05/02 00:40:23;;;;;;;14.18;6.82;;;6.20;99.90;;;;;;4992504;28;20042;-71
2022/05/02 00:42:49;;;;;;;11.88;7.65;;;6.20;99.90;;;;;;4973675;28;20561;-71
2022/05/02 00:45:16;;;;;;;13.38;7.03;;;6.10;99.90;;;;;;4992458;28;20050;-71
2022/05/02 00:47:53;;;;;;;13.35;8.05;;;6.10;99.90;;;;;;4992140;28;20053;-71
2022/05/02 00:50:40;;;;;;;13.77;7.93;;;6.20;99.90;;;;;;4991924;28;20906;-71
2022/05/02 00:53:09;;;;;;;11.68;7.47;;;6.20;99.90;;;;;;4990929;28;20062;-71
2022/05/02 00:55:35;;;;;;;13.57;8.02;;;6.00;99.90;;;;;;4975474;28;20064;-71
2022/05/02 00:58:02;;;;;;;12.68;7.65;;;6.00;99.90;;;;;;4990234;28;20119;-71
2022/05/02 01:00:30;;;;;;;15.35;7.57;;;5.90;99.90;;;;;;4973683;28;20076;-71
2022/05/02 01:02:56;;;;;;;13.93;8.85;;;6.00;99.90;;;;;;4989652;28;20666;-71
2022/05/02 01:05:22;;;;;;;14.35;8.38;;;5.90;99.90;;;;;;4991018;28;20042;-71
2022/05/02 01:07:48;;;;;;;14.27;8.70;;;6.00;99.90;;;;;;4989008;28;20049;-71
2022/05/02 01:10:17;;;;;;;14.73;8.25;;;5.90;99.90;;;;;;4971890;28;20562;-71
2022/05/02 01:12:44;;;;;;;13.55;7.82;;;5.80;99.90;;;;;;4992204;28;20049;-71
2022/05/02 01:15:10;;;;;;;13.23;8.38;;;5.80;99.90;;;;;;4994431;28;20080;-71
2022/05/02 01:17:41;;;;;;;12.38;7.85;;;5.80;99.90;;;;;;4994992;28;20062;-71
2022/05/02 01:20:11;;;;;;;13.38;7.97;;;5.70;99.90;;;;;;4988315;28;20112;-71
2022/05/02 01:22:37;;;;;;;14.82;8.75;;;5.70;99.90;;;;;;4991591;28;20042;-71
2022/05/02 01:25:03;;;;;;;14.05;8.05;;;5.60;99.90;;;;;;4989437;28;20054;-71
2022/05/02 01:27:29;;;;;;;12.90;8.52;;;5.70;99.90;;;;;;4993170;28;20050;-71
2022/05/02 01:29:55;;;;;;;16.00;8.90;;;5.70;99.90;;;;;;4993606;28;20052;-71
2022/05/02 01:32:21;;;;;;;13.50;8.23;;;5.70;99.90;;;;;;4978082;28;20116;-71
2022/05/02 01:34:46;;;;;;;13.98;8.75;;;5.70;99.90;;;;;;4970868;28;20038;-71
2022/05/02 01:37:14;;;;;;;13.52;8.88;;;5.50;99.90;;;;;;4990697;28;20049;-71
2022/05/02 01:39:41;;;;;;;15.25;8.30;;;5.40;99.90;;;;;;4990990;28;20416;-71
2022/05/02 01:42:09;;;;;;;14.85;8.57;;;5.20;99.90;;;;;;4996483;28;20053;-71
2022/05/02 01:44:36;;;;;;;14.32;8.52;;;5.20;99.90;;;;;;4989371;28;20116;-71
2022/05/02 01:47:02;;;;;;;11.32;7.60;;;5.10;99.90;;;;;;4989015;28;20069;-71
2022/05/02 01:49:28;;;;;;;14.38;9.18;;;4.90;99.90;;;;;;4988685;28;20096;-71
2022/05/02 01:51:54;;;;;;;20.90;9.32;;;5.00;99.90;;;;;;4992354;28;20045;-71
2022/05/02 01:54:20;;;;;;;18.83;8.77;;;5.00;99.90;;;;;;4992130;28;20057;-71
2022/05/02 01:56:46;;;;;;;18.15;8.77;;;5.10;99.90;;;;;;4989496;28;20232;-71
2022/05/02 01:59:11;;;;;;;19.23;10.60;;;5.10;99.90;;;;;;4974194;28;20132;-71
2022/05/02 02:01:37;;;;;;;13.88;8.90;;;5.10;99.90;;;;;;4987173;28;20065;-71
2022/05/02 02:06:50;;;;;;;13.30;9.02;;;5.10;99.90;;;;;;4992178;28;21117;-71
2022/05/02 02:09:16;;;;;;;13.57;8.70;;;5.00;99.90;;;;;;4994058;28;20079;-71
2022/05/02 02:11:42;;;;;;;14.05;9.77;;;4.90;99.90;;;;;;4973062;28;20088;-71
2022/05/02 02:14:07;;;;;;;13.07;8.52;;;4.90;99.90;;;;;;4991623;28;20136;-71
2022/05/02 02:16:33;;;;;;;21.58;8.75;;;4.80;99.90;;;;;;4995440;28;20038;-71
2022/05/02 02:18:59;;;;;;;15.68;8.68;;;4.80;99.90;;;;;;4973172;28;20128;-71
2022/05/02 02:21:25;;;;;;;14.05;9.20;;;4.60;99.90;;;;;;4990422;28;20049;-71
2022/05/02 02:23:51;;;;;;;12.90;7.95;;;4.60;99.90;;;;;;4993883;28;20053;-71
2022/05/02 02:26:17;;;;;;;14.45;8.93;;;4.60;99.90;;;;;;4975897;28;20046;-71
2022/05/02 02:28:42;;;;;;;13.38;8.70;;;4.80;99.90;;;;;;4989687;28;20053;-71
2022/05/02 02:31:08;;;;;;;13.70;9.50;;;4.80;99.90;;;;;;4987947;28;20073;-71
2022/05/02 02:33:34;;;;;;;15.00;9.32;;;4.80;99.90;;;;;;4988940;28;20069;-71
2022/05/02 02:36:00;;;;;;;12.40;7.65;;;4.80;99.90;;;;;;4990118;28;20046;-70
2022/05/02 02:38:26;;;;;;;17.38;9.35;;;4.60;99.90;;;;;;4971334;28;20652;-71
2022/05/02 02:40:52;;;;;;;13.80;9.02;;;4.50;99.90;;;;;;4994625;28;20049;-71
2022/05/02 02:43:36;;;;;;;15.52;8.32;;;4.40;99.90;;;;;;4990364;28;20418;-71
2022/05/02 02:46:02;;;;;;;16.73;10.07;;;4.40;99.90;;;;;;4990979;28;20048;-71
2022/05/02 02:48:27;;;;;;;15.05;8.63;;;4.50;99.90;;;;;;4976799;28;20050;-71
2022/05/02 02:50:53;;;;;;;14.27;7.82;;;4.40;99.90;;;;;;4986193;28;20068;-71
2022/05/02 02:53:19;;;;;;;14.00;8.65;;;4.30;99.90;;;;;;4971425;28;20891;-71
2022/05/02 02:55:45;;;;;;;17.40;7.38;;;4.30;99.90;;;;;;4987892;28;20077;-71
2022/05/02 02:58:10;;;;;;;14.98;9.13;;;4.20;99.90;;;;;;4994447;28;20053;-71
2022/05/02 03:00:36;;;;;;;22.45;10.20;;;4.30;99.90;;;;;;4987336;28;20053;-71
2022/05/02 03:03:03;;;;;;;15.18;7.97;;;4.40;99.90;;;;;;4970866;28;20057;-71
2022/05/02 03:08:13;;;;;;;13.95;8.52;;;4.30;99.90;;;;;;4970295;28;20050;-71
2022/05/02 03:10:38;;;;;;;16.13;10.55;;;4.30;99.90;;;;;;4985696;28;20037;-71
2022/05/02 03:13:04;;;;;;;23.63;8.30;;;4.40;99.90;;;;;;4986710;28;20054;-71
2022/05/02 03:15:30;;;;;;;15.25;7.82;;;4.20;99.90;;;;;;4988296;28;20053;-71
2022/05/02 03:17:56;;;;;;;13.55;7.25;;;4.10;99.90;;;;;;4954173;28;20105;-71
2022/05/02 03:20:22;;;;;;;19.38;8.13;;;4.10;99.90;;;;;;4951339;28;20054;-71
2022/05/02 03:22:49;;;;;;;22.05;9.80;;;4.00;99.90;;;;;;4936370;28;20066;-71
2022/05/02 03:25:15;;;;;;;18.08;10.25;;;4.00;99.90;;;;;;4949231;28;20047;-71
2022/05/02 03:27:41;;;;;;;30.80;10.55;;;4.00;99.90;;;;;;4950547;28;20054;-71
2022/05/02 03:30:07;;;;;;;27.05;10.30;;;4.20;99.90;;;;;;4952104;28;20494;-71
2022/05/02 03:32:33;;;;;;;22.27;10.25;;;4.20;99.90;;;;;;4933845;28;20054;-71
2022/05/02 03:34:59;;;;;;;21.42;12.13;;;4.30;99.90;;;;;;4936103;28;20057;-71
2022/05/02 03:37:24;;;;;;;16.58;8.82;;;4.30;99.90;;;;;;4952830;28;20157;-71
2022/05/02 03:39:50;;;;;;;21.30;8.25;;;4.10;99.90;;;;;;4950679;28;20145;-71
2022/05/02 03:42:16;;;;;;;21.17;10.57;;;4.00;99.90;;;;;;4930545;28;20058;-71
2022/05/02 03:44:41;;;;;;;14.82;8.85;;;4.00;99.90;;;;;;4954530;28;20043;-71
2022/05/02 03:47:07;;;;;;;25.88;10.82;;;4.00;99.90;;;;;;4947737;28;20047;-71
2022/05/02 03:49:33;;;;;;;31.55;10.73;;;4.10;99.90;;;;;;4952424;28;20054;-71
2022/05/02 03:51:59;;;;;;;29.52;12.73;;;4.20;99.90;;;;;;4951564;28;20053;-71
2022/05/02 03:54:24;;;;;;;31.98;9.93;;;4.20;99.90;;;;;;4952434;28;20050;-71
2022/05/02 03:56:50;;;;;;;25.13;11.85;;;4.20;99.90;;;;;;4931213;28;20134;-71
2022/05/02 03:59:16;;;;;;;20.55;12.25;;;4.20;99.90;;;;;;4936934;28;20830;-71
2022/05/02 04:01:42;;;;;;;21.33;12.15;;;4.10;99.90;;;;;;4951119;28;20057;-71
2022/05/02 04:04:08;;;;;;;27.25;11.82;;;4.00;99.90;;;;;;4952342;28;20053;-71
2022/05/02 04:06:34;;;;;;;32.20;10.18;;;4.00;99.90;;;;;;4936098;28;20054;-71
2022/05/02 04:09:00;;;;;;;40.55;11.18;;;3.90;99.90;;;;;;4949540;28;20059;-71
2022/05/02 04:11:26;;;;;;;24.10;11.73;;;3.90;99.90;;;;;;4950986;28;20047;-71
2022/05/02 04:13:52;;;;;;;28.52;11.73;;;3.90;99.90;;;;;;4952659;28;20519;-71
2022/05/02 04:16:18;;;;;;;23.38;10.65;;;4.00;99.90;;;;;;4932704;28;20496;-69
2022/05/02 04:18:45;;;;;;;31.45;9.57;;;3.80;99.90;;;;;;4984239;28;20054;-70
2022/05/02 04:21:11;;;;;;;39.17;11.57;;;3.80;99.90;;;;;;4990110;28;20058;-71
2022/05/02 04:23:37;;;;;;;37.30;12.50;;;3.90;99.90;;;;;;4970858;28;20065;-70
2022/05/02 04:26:03;;;;;;;34.88;14.43;;;4.00;99.90;;;;;;4966529;28;20112;-70
2022/05/02 04:28:30;;;;;;;26.55;15.85;;;4.10;99.90;;;;;;4986624;28;20090;-71
2022/05/02 04:30:57;;;;;;;26.63;15.38;;;4.20;99.90;;;;;;4988539;28;20518;-71
2022/05/02 04:33:23;;;;;;;30.80;11.95;;;4.10;99.90;;;;;;4987420;28;20555;-71
2022/05/02 04:35:49;;;;;;;25.90;15.40;;;4.00;99.90;;;;;;4984998;28;20503;-71
2022/05/02 04:38:15;;;;;;;26.30;11.88;;;4.00;99.90;;;;;;4984658;28;20088;-70
2022/05/02 04:40:41;;;;;;;27.70;10.13;;;4.00;99.90;;;;;;4987901;28;20897;-71
2022/05/02 04:43:07;;;;;;;26.75;10.27;;;3.90;99.90;;;;;;4972973;28;20038;-71
2022/05/02 04:45:32;;;;;;;23.52;12.32;;;4.00;99.90;;;;;;4984644;28;20060;-70
2022/05/02 04:47:58;;;;;;;23.55;11.82;;;4.10;99.90;;;;;;4968940;28;20054;-71
2022/05/02 04:50:24;;;;;;;24.52;13.02;;;4.90;99.90;;;;;;4968744;28;20065;-71
2022/05/02 04:52:50;;;;;;;23.30;16.98;;;5.00;99.90;;;;;;4989172;28;20089;-71
2022/05/02 04:55:16;;;;;;;21.30;14.68;;;5.30;99.90;;;;;;4986078;28;20181;-71
2022/05/02 04:57:42;;;;;;;22.73;12.40;;;5.70;99.90;;;;;;4985923;28;20411;-71
2022/05/02 05:00:08;;;;;;;35.25;12.63;;;5.50;99.90;;;;;;4991953;28;20069;-71
2022/05/02 05:02:34;;;;;;;27.77;12.88;;;6.00;99.90;;;;;;4991598;28;20450;-71
2022/05/02 05:05:00;;;;;;;22.30;12.85;;;7.30;99.90;;;;;;4990579;28;20050;-71
2022/05/02 05:07:25;;;;;;;36.05;13.85;;;7.90;99.90;;;;;;4977137;28;20107;-71
2022/05/02 05:09:51;;;;;;;24.08;12.20;;;8.70;99.90;;;;;;4989173;28;20384;-71
2022/05/02 05:12:25;;;;;;;24.88;13.18;;;9.20;99.90;;;;;;4968233;28;20073;-71
2022/05/02 05:18:25;;;;;;;26.02;13.90;;;10.30;99.90;;;;;;4972859;28;20115;-72
2022/05/02 05:21:13;;;;;;;23.02;12.15;;;10.80;99.90;;;;;;4956156;28;20070;-71
2022/05/02 05:23:57;;;;;;;24.15;13.23;;;11.30;99.90;;;;;;4988799;28;20045;-71
2022/05/02 05:26:47;;;;;;;30.15;13.82;;;11.60;99.90;;;;;;4994262;28;20050;-71
2022/05/02 05:29:33;;;;;;;20.92;12.27;;;12.10;99.90;;;;;;4996058;28;20058;-72
2022/05/02 05:32:23;;;;;;;42.83;14.43;;;12.80;99.90;;;;;;4993211;28;20041;-72
2022/05/02 05:35:05;;;;;;;53.58;14.38;;;13.10;99.90;;;;;;4975852;28;20144;-71
2022/05/02 05:37:45;;;;;;;71.07;16.23;;;13.30;99.90;;;;;;4976053;28;20049;-71
2022/05/02 05:40:36;;;;;;;39.92;13.82;;;13.50;99.90;;;;;;4990882;28;20503;-71
2022/05/02 05:43:33;;;;;;;17.92;12.30;;;13.50;99.90;;;;;;4973963;28;20148;-71
2022/05/02 05:46:18;;;;;;;30.45;14.20;;;13.40;99.90;;;;;;4972379;28;20172;-71
2022/05/02 05:49:00;;;;;;;33.75;13.05;;;12.10;99.90;;;;;;4991025;28;20107;-71
2022/05/02 05:51:40;;;;;;;24.02;12.55;;;11.70;99.90;;;;;;4972742;28;20061;-71
2022/05/02 05:54:22;;;;;;;17.27;12.25;;;11.60;99.90;;;;;;4992640;28;20054;-69
2022/05/02 05:57:09;;;;;;;25.48;11.95;;;11.90;99.90;;;;;;4991471;28;20525;-71
2022/05/02 05:59:57;;;;;;;28.70;12.35;;;12.00;99.90;;;;;;4989579;28;20046;-71
2022/05/02 06:02:32;;;;;;;17.75;11.32;;;12.00;99.90;;;;;;4993810;28;20046;-71
2022/05/02 06:04:59;;;;;;;17.67;11.48;;;12.20;99.90;;;;;;4975466;28;20120;-71
2022/05/02 06:07:28;;;;;;;16.67;11.45;;;12.50;99.90;;;;;;4990882;28;20267;-71
2022/05/02 06:10:00;;;;;;;15.85;11.20;;;12.40;99.90;;;;;;4970871;28;20145;-72
2022/05/02 06:12:30;;;;;;;15.43;11.48;;;12.20;99.90;;;;;;4989000;28;20123;-71
2022/05/02 06:18:29;;;;;;;22.05;11.02;;;12.80;99.90;;;;;;4986880;28;20072;-71
2022/05/02 06:21:00;;;;;;;20.08;11.07;;;13.10;99.90;;;;;;4986831;28;20045;-71
2022/05/02 06:23:31;;;;;;;15.18;11.40;;;12.80;99.90;;;;;;4988764;28;20482;-71
2022/05/02 06:25:57;;;;;;;20.65;10.32;;;12.20;99.90;;;;;;4969370;28;20061;-71
2022/05/02 06:28:31;;;;;;;19.65;10.82;;;12.80;99.90;;;;;;4969112;28;20157;-71
2022/05/02 06:31:00;;;;;;;20.98;10.18;;;12.20;99.90;;;;;;4987980;28;20052;-71
2022/05/02 06:33:26;;;;;;;16.92;10.77;;;12.60;99.90;;;;;;4982362;28;20049;-71
2022/05/02 06:36:01;;;;;;;13.63;9.73;;;12.20;99.90;;;;;;4987260;28;20125;-71
2022/05/02 06:38:48;;;;;;;12.73;9.20;;;12.10;99.90;;;;;;4986436;28;20045;-71
2022/05/02 06:41:29;;;;;;;15.25;10.13;;;12.20;99.90;;;;;;4993029;28;20602;-71
2022/05/02 06:44:17;;;;;;;19.27;10.15;;;12.40;99.90;;;;;;4990966;28;20116;-71
2022/05/02 06:46:52;;;;;;;26.13;10.95;;;12.70;99.90;;;;;;4990436;28;20510;-71
2022/05/02 06:49:25;;;;;;;30.50;11.00;;;13.10;99.90;;;;;;4995043;28;20050;-72
2022/05/02 06:51:57;;;;;;;13.88;9.27;;;13.30;99.90;;;;;;4972598;28;20050;-71
2022/05/02 06:54:53;;;;;;;15.57;9.38;;;12.80;99.90;;;;;;4957088;28;20050;-72
2022/05/02 06:57:33;;;;;;;14.68;9.15;;;12.70;99.90;;;;;;4989523;28;20861;-71
2022/05/02 07:00:10;;;;;;;14.73;9.75;;;13.00;99.90;;;;;;4972786;28;20041;-72
2022/05/02 07:02:54;;;;;;;15.35;9.07;;;13.10;99.90;;;;;;4973059;28;20056;-71
2022/05/02 07:05:42;;;;;;;14.20;9.18;;;13.50;99.90;;;;;;4991631;28;20082;-72
2022/05/02 07:08:07;;;;;;;13.35;9.30;;;13.50;99.90;;;;;;4987613;28;20462;-72
2022/05/02 07:10:38;;;;;;;13.55;9.38;;;14.00;99.90;;;;;;4992303;28;20033;-71
2022/05/02 07:13:19;;;;;;;15.18;9.25;;;13.10;99.90;;;;;;4953948;28;20100;-72
2022/05/02 07:15:45;;;;;;;18.50;9.57;;;14.30;99.90;;;;;;4983311;28;20049;-71
2022/05/02 07:18:25;;;;;;;12.70;8.32;;;14.20;99.90;;;;;;4990754;28;20400;-72
2022/05/02 07:21:19;;;;;;;12.27;8.85;;;13.30;99.90;;;;;;4990442;28;20684;-71
2022/05/02 07:23:51;;;;;;;12.43;9.07;;;13.40;99.90;;;;;;4987404;28;20172;-72
2022/05/02 07:26:20;;;;;;;14.63;9.98;;;13.60;99.90;;;;;;4984636;28;20053;-71
2022/05/02 07:28:48;;;;;;;17.92;10.25;;;13.90;99.90;;;;;;4985749;28;20049;-71
2022/05/02 07:31:19;;;;;;;14.48;9.70;;;14.20;99.90;;;;;;4975235;28;20637;-72
2022/05/02 07:33:46;;;;;;;16.77;9.55;;;14.40;99.90;;;;;;4988184;28;20046;-71
2022/05/02 07:36:17;;;;;;;12.88;9.05;;;14.60;99.90;;;;;;4969739;28;20054;-72
2022/05/02 07:38:47;;;;;;;13.00;8.35;;;14.90;99.90;;;;;;4990632;28;20906;-72
2022/05/02 07:41:22;;;;;;;12.63;8.38;;;15.30;99.90;;;;;;4971516;28;20061;-72
2022/05/02 07:43:52;;;;;;;14.00;9.07;;;14.00;99.90;;;;;;4985271;28;20046;-72
2022/05/02 07:46:26;;;;;;;12.88;9.15;;;15.20;99.90;;;;;;4990893;28;20410;-72
2022/05/02 07:48:53;;;;;;;12.50;8.75;;;15.40;99.90;;;;;;4970710;28;20061;-72
2022/05/02 07:51:19;;;;;;;16.20;8.77;;;14.80;99.90;;;;;;4990920;28;20376;-72
2022/05/02 07:53:46;;;;;;;14.55;8.02;;;16.00;99.90;;;;;;4989593;28;20472;-72
2022/05/02 07:56:13;;;;;;;19.23;8.55;;;16.50;99.90;;;;;;4988338;28;20053;-72
2022/05/02 07:58:45;;;;;;;11.88;6.85;;;16.20;97.80;;;;;;4969055;28;20054;-72
2022/05/02 08:01:16;;;;;;;10.93;6.65;;;15.80;99.90;;;;;;4970240;28;20108;-72
2022/05/02 08:03:42;;;;;;;10.35;6.72;;;16.60;99.90;;;;;;4966667;28;20209;-72
2022/05/02 08:06:29;;;;;;;12.57;7.10;;;16.50;98.70;;;;;;4983196;28;20042;-72
2022/05/02 08:09:05;;;;;;;9.27;6.60;;;16.70;98.40;;;;;;4984183;28;20054;-72
2022/05/02 08:11:49;;;;;;;12.88;6.97;;;15.50;80.40;;;;;;4982703;28;20189;-72
2022/05/02 08:14:24;;;;;;;11.50;6.57;;;16.10;77.80;;;;;;4988067;28;20145;-72
2022/05/02 08:16:57;;;;;;;11.40;7.22;;;16.20;73.80;;;;;;4986419;28;20128;-71
2022/05/02 08:19:53;;;;;;;12.73;7.00;;;15.90;75.20;;;;;;4989136;28;20054;-72
2022/05/02 08:28:45;;;;;;;10.77;6.00;;;16.90;77.90;;;;;;4969030;28;20053;-72
2022/05/02 08:31:45;;;;;;;10.73;6.53;;;16.20;70.40;;;;;;4988437;28;20125;-72
2022/05/02 08:34:14;;;;;;;9.82;6.53;;;16.40;68.60;;;;;;4977773;28;20050;-72
2022/05/02 08:37:09;;;;;;;9.70;6.30;;;17.30;71.00;;;;;;4975045;28;20224;-72
2022/05/02 08:40:04;;;;;;;10.90;6.13;;;17.00;70.30;;;;;;4988945;28;20061;-72
2022/05/02 08:42:51;;;;;;;9.65;6.35;;;16.10;69.20;;;;;;4986829;28;20384;-72
2022/05/02 08:45:48;;;;;;;10.38;6.53;;;15.80;63.80;;;;;;4973871;28;20050;-72
2022/05/02 08:48:35;;;;;;;8.93;5.97;;;16.90;71.60;;;;;;4977429;28;20057;-72
2022/05/02 08:51:31;;;;;;;10.65;5.95;;;16.80;65.70;;;;;;4988463;28;20053;-72
2022/05/02 08:54:38;;;;;;;11.48;6.10;;;17.20;63.30;;;;;;4992240;28;20091;-72
2022/05/02 08:57:26;;;;;;;8.57;5.95;;;17.60;65.90;;;;;;4989608;28;20133;-72
2022/05/02 09:00:42;;;;;;;9.85;6.30;;;18.10;71.80;;;;;;4991283;28;20053;-72
2022/05/02 09:03:10;;;;;;;18.80;7.03;;;17.90;67.70;;;;;;4975600;28;20053;-72
2022/05/02 09:06:07;;;;;;;13.65;7.80;;;18.20;69.10;;;;;;4994062;28;20969;-72
2022/05/02 09:08:47;;;;;;;10.68;6.65;;;17.90;67.10;;;;;;4989844;28;20046;-72
2022/05/02 09:11:31;;;;;;;12.02;7.05;;;17.70;64.00;;;;;;4986269;28;20053;-72
2022/05/02 09:14:09;;;;;;;9.40;6.55;;;17.30;61.00;;;;;;4990031;28;20049;-72
2022/05/02 09:16:48;;;;;;;16.52;7.10;;;17.80;62.10;;;;;;4981476;28;20045;-71
2022/05/02 09:19:41;;;;;;;10.27;6.50;;;18.70;65.60;;;;;;4988128;28;21088;-72
2022/05/02 09:22:25;;;;;;;9.98;6.32;;;18.20;63.40;;;;;;4991702;28;20784;-71
2022/05/02 09:24:57;;;;;;;11.52;7.00;;;17.50;63.20;;;;;;4973077;28;20060;-71
2022/05/02 09:27:51;;;;;;;15.18;7.68;;;17.90;68.00;;;;;;4978325;28;20123;-71
2022/05/02 09:30:43;;;;;;;12.73;7.13;;;18.30;64.50;;;;;;4993757;28;20073;-71
2022/05/02 09:33:40;;;;;;;11.90;7.10;;;18.50;61.90;;;;;;4990061;28;20395;-71
2022/05/02 09:36:36;;;;;;;10.43;8.02;;;17.70;60.50;;;;;;4991805;28;20054;-71
2022/05/02 09:39:16;;;;;;;14.82;8.20;;;17.50;62.00;;;;;;4988214;28;20050;-71
2022/05/02 09:42:13;;;;;;;13.98;8.07;;;16.70;61.30;;;;;;4968705;28;20395;-71
2022/05/02 09:50:22;;;;;;;11.85;8.00;;;18.40;59.10;;;;;;4990900;28;20088;-71
2022/05/02 09:53:04;;;;;;;12.20;8.27;;;18.20;61.30;;;;;;4974309;28;20144;-71
2022/05/02 09:59:05;;;;;;;11.85;7.63;;;19.40;64.90;;;;;;4981011;28;20050;-71
2022/05/02 10:01:32;;;;;;;10.30;7.78;;;18.90;60.40;;;;;;4991241;28;20057;-71
2022/05/02 10:04:33;;;;;;;10.00;7.80;;;19.00;60.70;;;;;;4990504;28;20056;-71
2022/05/02 10:07:06;;;;;;;10.05;7.72;;;18.30;57.90;;;;;;4967909;28;20042;-71
2022/05/02 10:10:01;;;;;;;9.52;7.55;;;18.40;58.90;;;;;;4983949;28;20054;-71
2022/05/02 10:12:48;;;;;;;10.07;7.57;;;18.50;63.80;;;;;;4992167;28;20111;-71
2022/05/02 10:15:38;;;;;;;10.02;8.13;;;17.80;62.90;;;;;;4989484;28;20046;-71
2022/05/02 10:18:18;;;;;;;9.75;7.90;;;18.40;62.00;;;;;;4989901;28;20143;-71
2022/05/02 10:21:12;;;;;;;11.15;8.55;;;18.50;62.00;;;;;;4989216;28;20045;-71
2022/05/02 10:24:06;;;;;;;12.60;8.57;;;18.70;58.50;;;;;;4989250;28;20053;-71
2022/05/02 10:26:32;;;;;;;14.77;8.80;;;19.20;63.00;;;;;;4992544;28;20076;-71
2022/05/02 10:29:17;;;;;;;15.50;9.05;;;19.90;64.50;;;;;;4987639;28;20050;-71
2022/05/02 10:32:15;;;;;;;15.10;8.65;;;20.60;62.80;;;;;;4972139;28;20487;-71
2022/05/02 10:34:45;;;;;;;10.18;8.23;;;20.60;63.00;;;;;;4964190;28;20058;-71
2022/05/02 10:37:15;;;;;;;12.48;8.88;;;19.30;54.50;;;;;;4993788;28;20227;-71
2022/05/02 10:39:48;;;;;;;12.30;8.80;;;18.90;59.60;;;;;;4991286;28;20111;-71
2022/05/02 10:42:19;;;;;;;12.60;7.97;;;20.30;62.80;;;;;;4974091;28;20057;-71
2022/05/02 10:45:04;;;;;;;12.15;8.80;;;18.70;60.70;;;;;;4988890;28;20491;-71
2022/05/02 10:47:50;;;;;;;13.45;8.40;;;18.30;56.50;;;;;;4988114;28;20053;-71
2022/05/02 10:50:33;;;;;;;10.93;8.80;;;18.80;58.20;;;;;;4990805;28;20053;-72
2022/05/02 10:53:08;;;;;;;10.93;8.48;;;19.30;63.30;;;;;;4989380;28;20149;-71
2022/05/02 10:55:39;;;;;;;10.50;8.57;;;20.30;60.50;;;;;;4989846;28;20109;-71
2022/05/02 10:58:09;;;;;;;11.35;8.77;;;18.90;57.00;;;;;;4987822;28;20648;-71
2022/05/02 11:00:59;;;;;;;13.00;9.13;;;19.20;59.70;;;;;;4971664;28;20064;-71
2022/05/02 11:03:42;;;;;;;12.57;8.43;;;19.40;57.80;;;;;;4972314;28;20851;-72
2022/05/02 11:06:19;;;;;;;11.48;9.25;;;19.50;58.50;;;;;;4993760;28;20149;-71
2022/05/02 11:08:50;;;;;;;11.18;8.07;;;19.40;60.50;;;;;;4992446;28;20045;-71
2022/05/02 11:11:46;;;;;;;13.85;9.02;;;19.50;57.10;;;;;;4973358;28;20887;-72
2022/05/02 11:14:43;;;;;;;16.05;9.20;;;20.20;60.10;;;;;;4987925;28;20549;-71
2022/05/02 11:17:34;;;;;;;27.88;10.13;;;20.30;57.70;;;;;;4991537;28;20095;-71
2022/05/02 11:23:20;;;;;;;12.98;9.48;;;21.10;56.80;;;;;;4977952;28;20053;-72
2022/05/02 11:26:11;;;;;;;11.90;9.00;;;21.20;62.30;;;;;;4993687;28;20045;-72
2022/05/02 11:28:37;;;;;;;12.50;9.23;;;21.20;59.40;;;;;;4989921;28;20064;-72
2022/05/02 11:31:14;;;;;;;10.98;8.20;;;21.20;60.00;;;;;;4990777;28;20049;-72
2022/05/02 11:33:53;;;;;;;11.82;8.70;;;21.30;56.90;;;;;;4974755;28;20042;-72
2022/05/02 11:36:25;;;;;;;11.02;8.77;;;20.70;54.80;;;;;;4975160;28;20305;-72
2022/05/02 11:39:01;;;;;;;12.15;9.40;;;20.40;56.10;;;;;;4987147;28;20117;-72
2022/05/02 11:41:32;;;;;;;12.65;9.52;;;19.70;58.70;;;;;;4988113;28;20108;-72
2022/05/02 11:44:32;;;;;;;11.00;9.07;;;20.20;57.50;;;;;;4990449;28;20444;-72
2022/05/02 11:47:15;;;;;;;15.30;10.50;;;19.90;55.80;;;;;;4989759;28;20046;-72
2022/05/02 11:49:43;;;;;;;13.38;9.27;;;20.30;59.10;;;;;;4985524;28;20253;-72
2022/05/02 11:52:13;;;;;;;18.77;9.48;;;20.50;60.50;;;;;;4972168;28;20046;-70
2022/05/02 11:54:39;;;;;;;25.00;10.25;;;20.90;59.60;;;;;;4986783;28;20044;-72
2022/05/02 11:57:23;;;;;;;11.68;8.50;;;20.10;60.70;;;;;;4989136;28;20085;-72
2022/05/02 12:00:00;;;;;;;10.68;9.05;;;19.60;53.90;;;;;;4987604;28;20412;-72
2022/05/02 12:02:48;;;;;;;10.82;8.98;;;19.40;57.60;;;;;;4971902;28;20065;-72
2022/05/02 12:05:39;;;;;;;13.07;9.60;;;19.00;55.10;;;;;;4986379;28;20056;-72
2022/05/02 12:08:10;;;;;;;20.50;9.30;;;19.60;57.70;;;;;;4987488;28;20044;-71
2022/05/02 12:10:40;;;;;;;12.77;8.95;;;20.20;55.70;;;;;;4974169;28;20057;-72
2022/05/02 12:13:13;;;;;;;12.80;9.20;;;20.60;53.80;;;;;;4987127;28;20073;-72
2022/05/02 12:15:57;;;;;;;12.93;8.95;;;20.40;53.60;;;;;;4991898;28;20052;-72
2022/05/02 12:18:54;;;;;;;13.07;9.25;;;20.10;52.10;;;;;;4971836;28;20515;-72
2022/05/02 12:21:38;;;;;;;13.15;9.85;;;21.10;58.40;;;;;;4976226;28;20053;-72
2022/05/02 12:24:05;;;;;;;15.18;9.48;;;21.40;59.10;;;;;;4974322;28;20046;-72
2022/05/02 12:26:46;;;;;;;14.15;8.82;;;21.90;58.60;;;;;;4993683;28;20733;-73
2022/05/02 12:29:14;;;;;;;12.90;9.70;;;21.80;55.20;;;;;;4989718;28;20054;-72
2022/05/02 12:31:43;;;;;;;12.45;9.60;;;21.30;53.60;;;;;;4971573;28;20058;-72
2022/05/02 12:34:10;;;;;;;13.93;9.27;;;21.50;51.40;;;;;;4975440;28;20069;-72
2022/05/02 12:36:57;;;;;;;12.63;9.10;;;21.80;61.00;;;;;;4996286;28;20054;-72
2022/05/02 12:39:28;;;;;;;11.18;9.35;;;21.80;56.10;;;;;;4971384;28;20046;-72
2022/05/02 12:42:19;;;;;;;11.07;9.48;;;22.00;55.80;;;;;;4992427;28;20043;-72
2022/05/02 12:45:01;;;;;;;14.30;9.48;;;21.70;57.80;;;;;;4972265;28;20081;-73
2022/05/02 12:47:39;;;;;;;13.15;9.00;;;22.10;60.00;;;;;;4989266;28;20069;-72
2022/05/02 12:50:16;;;;;;;12.38;8.90;;;22.40;54.80;;;;;;4974546;28;20133;-73
2022/05/02 12:52:45;;;;;;;12.40;8.73;;;20.40;52.60;;;;;;4989704;28;20601;-72
2022/05/02 12:55:12;;;;;;;10.98;8.93;;;20.90;55.40;;;;;;4989548;28;20055;-72
2022/05/02 13:00:39;;;;;;;12.20;9.52;;;22.00;59.00;;;;;;4977518;28;20129;-73
2022/05/02 13:03:10;;;;;;;106.07;13.50;;;22.20;57.10;;;;;;4987285;28;20162;-72
2022/05/02 13:05:42;;;;;;;31.20;10.88;;;22.20;57.60;;;;;;4991616;28;20034;-72
2022/05/02 13:08:11;;;;;;;10.40;8.52;;;21.90;54.60;;;;;;4994647;28;21015;-73
2022/05/02 13:10:39;;;;;;;15.95;8.75;;;21.40;50.40;;;;;;4994577;28;20818;-73
2022/05/02 13:13:09;;;;;;;13.48;9.35;;;20.80;52.70;;;;;;4956677;28;20056;-73
2022/05/02 13:15:40;;;;;;;13.07;9.50;;;20.80;53.50;;;;;;4990188;28;20141;-73
2022/05/02 13:18:07;;;;;;;17.23;9.40;;;20.50;50.00;;;;;;4970780;28;20119;-73
2022/05/02 13:20:34;;;;;;;30.35;9.40;;;21.00;55.20;;;;;;4991626;28;20061;-72
2022/05/02 13:23:10;;;;;;;13.68;9.27;;;21.40;56.40;;;;;;4992624;28;20045;-72
2022/05/02 13:26:05;;;;;;;22.27;9.77;;;21.40;56.20;;;;;;4991839;28;20038;-73
2022/05/02 13:29:18;;;;;;;13.40;9.38;;;21.60;56.40;;;;;;4987825;28;20060;-73
2022/05/02 13:31:58;;;;;;;18.40;9.10;;;22.10;55.00;;;;;;4986416;28;20791;-73
2022/05/02 13:34:36;;;;;;;14.23;8.95;;;21.80;52.00;;;;;;4989737;28;20060;-73
2022/05/02 13:37:14;;;;;;;12.55;8.00;;;22.10;52.40;;;;;;4992019;28;20046;-73
2022/05/02 13:40:15;;;;;;;29.38;9.38;;;22.20;54.40;;;;;;4988979;28;20064;-72
2022/05/02 13:42:49;;;;;;;19.65;8.88;;;21.60;51.70;;;;;;4970225;28;20559;-72
2022/05/02 13:45:53;;;;;;;11.40;7.97;;;21.70;55.30;;;;;;4967990;28;20064;-73
2022/05/02 13:48:40;;;;;;;9.32;7.25;;;21.30;52.40;;;;;;4988163;28;20057;-72